sensor_id;sensor_type;location;lat;lon;timestamp;P1;durP1;ratioP1;P2;durP2;ratioP2
52057;SDS011;38063;53.210;6.504;2023-07-29T00:00:45;7.82;;;5.90;;
52057;SDS011;38063;53.210;6.504;2023-07-29T00:03:11;8.45;;;6.03;;
52057;SDS011;38063;53.210;6.504;2023-07-29T00:05:37;10.32;;;6.30;;
52057;SDS011;38063;53.210;6.504;2023-07-29T00:08:03;11.82;;;6.82;;
52057;SDS011;38063;53.210;6.504;2023-07-29T00:10:31;9.07;;;6.55;;
52057;SDS011;38063;53.210;6.504;2023-07-29T00:12:57;10.02;;;6.57;;
52057;SDS011;38063;53.210;6.504;2023-07-29T00:15:23;9.88;;;6.68;;
52057;SDS011;38063;53.210;6.504;2023-07-29T00:17:49;9.65;;;6.13;;
52057;SDS011;38063;53.210;6.504;2023-07-29T00:20:14;8.75;;;6.70;;
52057;SDS011;38063;53.210;6.504;2023-07-29T00:22:40;9.93;;;6.68;;
52057;SDS011;38063;53.210;6.504;2023-07-29T00:25:06;11.15;;;7.18;;
52057;SDS011;38063;53.210;6.504;2023-07-29T00:27:32;10.43;;;7.45;;
52057;SDS011;38063;53.210;6.504;2023-07-29T00:29:58;9.73;;;6.82;;
52057;SDS011;38063;53.210;6.504;2023-07-29T00:32:23;12.77;;;7.35;;
52057;SDS011;38063;53.210;6.504;2023-07-29T00:34:49;10.40;;;7.05;;
52057;SDS011;38063;53.210;6.504;2023-07-29T00:37:14;9.48;;;7.28;;
52057;SDS011;38063;53.210;6.504;2023-07-29T00:39:40;9.90;;;7.30;;
52057;SDS011;38063;53.210;6.504;2023-07-29T00:42:06;8.73;;;6.93;;
52057;SDS011;38063;53.210;6.504;2023-07-29T00:44:31;9.38;;;6.97;;
52057;SDS011;38063;53.210;6.504;2023-07-29T00:46:57;9.05;;;6.72;;
52057;SDS011;38063;53.210;6.504;2023-07-29T00:49:25;9.63;;;7.07;;
52057;SDS011;38063;53.210;6.504;2023-07-29T00:51:51;10.88;;;7.43;;
52057;SDS011;38063;53.210;6.504;2023-07-29T00:54:17;13.15;;;8.20;;
52057;SDS011;38063;53.210;6.504;2023-07-29T00:56:42;10.43;;;7.63;;
52057;SDS011;38063;53.210;6.504;2023-07-29T00:59:08;11.63;;;7.97;;
52057;SDS011;38063;53.210;6.504;2023-07-29T01:01:34;9.07;;;7.20;;
52057;SDS011;38063;53.210;6.504;2023-07-29T01:04:00;10.32;;;7.75;;
52057;SDS011;38063;53.210;6.504;2023-07-29T01:06:31;10.88;;;7.25;;
52057;SDS011;38063;53.210;6.504;2023-07-29T01:12:36;9.50;;;7.20;;
52057;SDS011;38063;53.210;6.504;2023-07-29T01:15:26;11.25;;;7.63;;
52057;SDS011;38063;53.210;6.504;2023-07-29T01:18:08;13.07;;;7.78;;
52057;SDS011;38063;53.210;6.504;2023-07-29T01:20:43;9.30;;;7.25;;
52057;SDS011;38063;53.210;6.504;2023-07-29T01:23:10;10.68;;;7.82;;
52057;SDS011;38063;53.210;6.504;2023-07-29T01:25:36;9.75;;;7.25;;
52057;SDS011;38063;53.210;6.504;2023-07-29T01:28:02;11.57;;;7.38;;
52057;SDS011;38063;53.210;6.504;2023-07-29T01:30:37;14.60;;;7.78;;
52057;SDS011;38063;53.210;6.504;2023-07-29T01:35:47;9.65;;;7.38;;
52057;SDS011;38063;53.210;6.504;2023-07-29T01:40:53;10.27;;;7.65;;
52057;SDS011;38063;53.210;6.504;2023-07-29T01:43:19;10.15;;;7.60;;
52057;SDS011;38063;53.210;6.504;2023-07-29T01:45:48;9.82;;;7.22;;
52057;SDS011;38063;53.210;6.504;2023-07-29T01:48:14;9.73;;;7.30;;
52057;SDS011;38063;53.210;6.504;2023-07-29T01:50:40;10.65;;;6.97;;
52057;SDS011;38063;53.210;6.504;2023-07-29T01:53:05;12.75;;;7.80;;
52057;SDS011;38063;53.210;6.504;2023-07-29T01:55:31;11.23;;;7.80;;
52057;SDS011;38063;53.210;6.504;2023-07-29T01:57:57;12.77;;;7.53;;
52057;SDS011;38063;53.210;6.504;2023-07-29T02:00:23;9.93;;;7.30;;
52057;SDS011;38063;53.210;6.504;2023-07-29T02:02:49;12.18;;;8.02;;
52057;SDS011;38063;53.210;6.504;2023-07-29T02:05:14;11.90;;;7.22;;
52057;SDS011;38063;53.210;6.504;2023-07-29T02:07:40;11.85;;;7.82;;
52057;SDS011;38063;53.210;6.504;2023-07-29T02:10:06;13.43;;;7.88;;
52057;SDS011;38063;53.210;6.504;2023-07-29T02:12:32;11.57;;;8.30;;
52057;SDS011;38063;53.210;6.504;2023-07-29T02:14:58;12.25;;;8.05;;
52057;SDS011;38063;53.210;6.504;2023-07-29T02:17:24;11.75;;;8.40;;
52057;SDS011;38063;53.210;6.504;2023-07-29T02:19:51;10.90;;;7.68;;
52057;SDS011;38063;53.210;6.504;2023-07-29T02:22:17;10.48;;;8.10;;
52057;SDS011;38063;53.210;6.504;2023-07-29T02:24:43;12.35;;;7.57;;
52057;SDS011;38063;53.210;6.504;2023-07-29T02:27:09;11.30;;;8.13;;
52057;SDS011;38063;53.210;6.504;2023-07-29T02:29:35;11.02;;;7.93;;
52057;SDS011;38063;53.210;6.504;2023-07-29T02:32:01;11.65;;;8.20;;
52057;SDS011;38063;53.210;6.504;2023-07-29T02:34:27;12.02;;;7.72;;
52057;SDS011;38063;53.210;6.504;2023-07-29T02:36:53;12.30;;;8.25;;
52057;SDS011;38063;53.210;6.504;2023-07-29T02:39:19;11.43;;;7.90;;
52057;SDS011;38063;53.210;6.504;2023-07-29T02:41:45;10.57;;;7.80;;
52057;SDS011;38063;53.210;6.504;2023-07-29T02:44:10;10.35;;;7.57;;
52057;SDS011;38063;53.210;6.504;2023-07-29T02:46:36;10.90;;;8.20;;
52057;SDS011;38063;53.210;6.504;2023-07-29T02:49:02;12.25;;;8.40;;
52057;SDS011;38063;53.210;6.504;2023-07-29T02:51:29;13.40;;;7.95;;
52057;SDS011;38063;53.210;6.504;2023-07-29T02:53:55;10.93;;;7.50;;
52057;SDS011;38063;53.210;6.504;2023-07-29T02:56:21;13.55;;;7.90;;
52057;SDS011;38063;53.210;6.504;2023-07-29T02:58:46;12.40;;;8.38;;
52057;SDS011;38063;53.210;6.504;2023-07-29T03:01:12;10.13;;;7.80;;
52057;SDS011;38063;53.210;6.504;2023-07-29T03:03:38;12.52;;;7.30;;
52057;SDS011;38063;53.210;6.504;2023-07-29T03:06:05;11.18;;;7.53;;
52057;SDS011;38063;53.210;6.504;2023-07-29T03:08:32;12.60;;;8.10;;
52057;SDS011;38063;53.210;6.504;2023-07-29T03:10:58;10.07;;;8.00;;
52057;SDS011;38063;53.210;6.504;2023-07-29T03:13:29;11.68;;;7.50;;
52057;SDS011;38063;53.210;6.504;2023-07-29T03:16:03;13.90;;;8.85;;
52057;SDS011;38063;53.210;6.504;2023-07-29T03:18:33;11.07;;;8.05;;
52057;SDS011;38063;53.210;6.504;2023-07-29T03:20:59;13.05;;;8.10;;
52057;SDS011;38063;53.210;6.504;2023-07-29T03:23:24;11.85;;;8.18;;
52057;SDS011;38063;53.210;6.504;2023-07-29T03:25:50;11.05;;;7.45;;
52057;SDS011;38063;53.210;6.504;2023-07-29T03:28:16;8.18;;;7.05;;
52057;SDS011;38063;53.210;6.504;2023-07-29T03:30:42;11.50;;;8.13;;
52057;SDS011;38063;53.210;6.504;2023-07-29T03:33:08;10.95;;;7.70;;
52057;SDS011;38063;53.210;6.504;2023-07-29T03:35:33;15.70;;;7.97;;
52057;SDS011;38063;53.210;6.504;2023-07-29T03:37:59;10.80;;;7.47;;
52057;SDS011;38063;53.210;6.504;2023-07-29T03:40:24;11.98;;;7.80;;
52057;SDS011;38063;53.210;6.504;2023-07-29T03:42:50;12.82;;;7.82;;
52057;SDS011;38063;53.210;6.504;2023-07-29T03:45:16;13.40;;;7.88;;
52057;SDS011;38063;53.210;6.504;2023-07-29T03:47:41;11.00;;;7.47;;
52057;SDS011;38063;53.210;6.504;2023-07-29T03:50:07;14.38;;;7.68;;
52057;SDS011;38063;53.210;6.504;2023-07-29T03:52:33;14.13;;;8.23;;
52057;SDS011;38063;53.210;6.504;2023-07-29T03:54:59;11.68;;;7.15;;
52057;SDS011;38063;53.210;6.504;2023-07-29T03:57:24;12.52;;;7.75;;
52057;SDS011;38063;53.210;6.504;2023-07-29T03:59:50;10.68;;;6.85;;
52057;SDS011;38063;53.210;6.504;2023-07-29T04:02:16;9.50;;;7.03;;
52057;SDS011;38063;53.210;6.504;2023-07-29T04:04:41;12.23;;;7.40;;
52057;SDS011;38063;53.210;6.504;2023-07-29T04:07:09;12.60;;;7.25;;
52057;SDS011;38063;53.210;6.504;2023-07-29T04:09:34;11.73;;;7.53;;
52057;SDS011;38063;53.210;6.504;2023-07-29T04:12:00;15.10;;;7.75;;
52057;SDS011;38063;53.210;6.504;2023-07-29T04:14:27;12.18;;;7.50;;
52057;SDS011;38063;53.210;6.504;2023-07-29T04:16:52;11.68;;;7.50;;
52057;SDS011;38063;53.210;6.504;2023-07-29T04:19:18;10.52;;;7.95;;
52057;SDS011;38063;53.210;6.504;2023-07-29T04:21:43;11.38;;;7.18;;
52057;SDS011;38063;53.210;6.504;2023-07-29T04:24:09;12.40;;;7.43;;
52057;SDS011;38063;53.210;6.504;2023-07-29T04:26:35;11.23;;;6.90;;
52057;SDS011;38063;53.210;6.504;2023-07-29T04:29:00;10.60;;;7.15;;
52057;SDS011;38063;53.210;6.504;2023-07-29T04:31:26;10.40;;;7.28;;
52057;SDS011;38063;53.210;6.504;2023-07-29T04:33:51;14.00;;;7.28;;
52057;SDS011;38063;53.210;6.504;2023-07-29T04:36:17;16.63;;;6.82;;
52057;SDS011;38063;53.210;6.504;2023-07-29T04:38:43;9.65;;;6.80;;
52057;SDS011;38063;53.210;6.504;2023-07-29T04:41:08;9.35;;;6.57;;
52057;SDS011;38063;53.210;6.504;2023-07-29T04:43:34;8.73;;;6.65;;
52057;SDS011;38063;53.210;6.504;2023-07-29T04:46:00;11.05;;;6.50;;
52057;SDS011;38063;53.210;6.504;2023-07-29T04:48:25;10.68;;;6.50;;
52057;SDS011;38063;53.210;6.504;2023-07-29T04:50:51;13.13;;;6.00;;
52057;SDS011;38063;53.210;6.504;2023-07-29T04:53:17;10.30;;;5.53;;
52057;SDS011;38063;53.210;6.504;2023-07-29T04:55:42;10.40;;;6.60;;
52057;SDS011;38063;53.210;6.504;2023-07-29T04:58:08;10.05;;;5.35;;
52057;SDS011;38063;53.210;6.504;2023-07-29T05:00:34;7.88;;;5.53;;
52057;SDS011;38063;53.210;6.504;2023-07-29T05:03:00;11.68;;;5.75;;
52057;SDS011;38063;53.210;6.504;2023-07-29T05:05:26;10.13;;;5.40;;
52057;SDS011;38063;53.210;6.504;2023-07-29T05:07:52;10.20;;;5.20;;
52057;SDS011;38063;53.210;6.504;2023-07-29T05:10:17;10.60;;;5.95;;
52057;SDS011;38063;53.210;6.504;2023-07-29T05:12:43;10.57;;;5.35;;
52057;SDS011;38063;53.210;6.504;2023-07-29T05:15:09;7.50;;;5.50;;
52057;SDS011;38063;53.210;6.504;2023-07-29T05:17:35;8.50;;;5.10;;
52057;SDS011;38063;53.210;6.504;2023-07-29T05:20:00;10.05;;;5.00;;
52057;SDS011;38063;53.210;6.504;2023-07-29T05:22:26;8.10;;;4.93;;
52057;SDS011;38063;53.210;6.504;2023-07-29T05:24:52;6.82;;;4.35;;
52057;SDS011;38063;53.210;6.504;2023-07-29T05:27:18;8.55;;;4.80;;
52057;SDS011;38063;53.210;6.504;2023-07-29T05:29:43;12.73;;;4.53;;
52057;SDS011;38063;53.210;6.504;2023-07-29T05:32:09;6.32;;;4.60;;
52057;SDS011;38063;53.210;6.504;2023-07-29T05:34:34;8.35;;;4.03;;
52057;SDS011;38063;53.210;6.504;2023-07-29T05:37:00;7.40;;;4.15;;
52057;SDS011;38063;53.210;6.504;2023-07-29T05:39:26;7.22;;;3.80;;
52057;SDS011;38063;53.210;6.504;2023-07-29T05:41:51;7.88;;;4.50;;
52057;SDS011;38063;53.210;6.504;2023-07-29T05:44:17;7.85;;;4.40;;
52057;SDS011;38063;53.210;6.504;2023-07-29T05:46:42;6.47;;;4.13;;
52057;SDS011;38063;53.210;6.504;2023-07-29T05:49:08;8.05;;;4.57;;
52057;SDS011;38063;53.210;6.504;2023-07-29T05:51:34;7.78;;;3.80;;
52057;SDS011;38063;53.210;6.504;2023-07-29T05:53:59;6.97;;;4.22;;
52057;SDS011;38063;53.210;6.504;2023-07-29T05:56:25;7.97;;;4.13;;
52057;SDS011;38063;53.210;6.504;2023-07-29T05:58:50;8.40;;;3.70;;
52057;SDS011;38063;53.210;6.504;2023-07-29T06:01:16;8.10;;;3.97;;
52057;SDS011;38063;53.210;6.504;2023-07-29T06:03:46;8.07;;;4.03;;
52057;SDS011;38063;53.210;6.504;2023-07-29T06:06:12;7.63;;;4.00;;
52057;SDS011;38063;53.210;6.504;2023-07-29T06:08:37;6.50;;;3.88;;
52057;SDS011;38063;53.210;6.504;2023-07-29T06:11:03;8.98;;;4.15;;
52057;SDS011;38063;53.210;6.504;2023-07-29T06:13:31;7.70;;;3.63;;
52057;SDS011;38063;53.210;6.504;2023-07-29T06:15:57;9.88;;;4.00;;
52057;SDS011;38063;53.210;6.504;2023-07-29T06:18:23;6.63;;;3.55;;
52057;SDS011;38063;53.210;6.504;2023-07-29T06:20:49;7.82;;;4.53;;
52057;SDS011;38063;53.210;6.504;2023-07-29T06:23:15;7.68;;;3.63;;
52057;SDS011;38063;53.210;6.504;2023-07-29T06:25:41;5.47;;;3.45;;
52057;SDS011;38063;53.210;6.504;2023-07-29T06:28:07;8.43;;;3.95;;
52057;SDS011;38063;53.210;6.504;2023-07-29T06:30:33;6.63;;;3.08;;
52057;SDS011;38063;53.210;6.504;2023-07-29T06:32:59;8.20;;;3.55;;
52057;SDS011;38063;53.210;6.504;2023-07-29T06:35:25;8.30;;;3.67;;
52057;SDS011;38063;53.210;6.504;2023-07-29T06:37:50;11.80;;;3.38;;
52057;SDS011;38063;53.210;6.504;2023-07-29T06:40:16;7.82;;;3.45;;
52057;SDS011;38063;53.210;6.504;2023-07-29T06:42:42;6.45;;;3.50;;
52057;SDS011;38063;53.210;6.504;2023-07-29T06:45:07;8.07;;;3.22;;
52057;SDS011;38063;53.210;6.504;2023-07-29T06:47:33;5.50;;;2.75;;
52057;SDS011;38063;53.210;6.504;2023-07-29T06:49:59;9.43;;;3.53;;
52057;SDS011;38063;53.210;6.504;2023-07-29T06:52:25;6.40;;;3.15;;
52057;SDS011;38063;53.210;6.504;2023-07-29T06:54:51;7.32;;;3.70;;
52057;SDS011;38063;53.210;6.504;2023-07-29T06:57:16;6.30;;;3.88;;
52057;SDS011;38063;53.210;6.504;2023-07-29T06:59:42;7.57;;;2.92;;
52057;SDS011;38063;53.210;6.504;2023-07-29T07:02:08;8.55;;;3.38;;
52057;SDS011;38063;53.210;6.504;2023-07-29T07:04:33;8.70;;;3.85;;
52057;SDS011;38063;53.210;6.504;2023-07-29T07:06:59;6.07;;;3.38;;
52057;SDS011;38063;53.210;6.504;2023-07-29T07:09:24;6.80;;;3.47;;
52057;SDS011;38063;53.210;6.504;2023-07-29T07:11:50;7.75;;;3.28;;
52057;SDS011;38063;53.210;6.504;2023-07-29T07:14:16;8.02;;;3.63;;
52057;SDS011;38063;53.210;6.504;2023-07-29T07:16:41;10.68;;;3.97;;
52057;SDS011;38063;53.210;6.504;2023-07-29T07:19:07;5.28;;;3.30;;
52057;SDS011;38063;53.210;6.504;2023-07-29T07:21:32;9.13;;;3.70;;
52057;SDS011;38063;53.210;6.504;2023-07-29T07:23:58;9.27;;;4.10;;
52057;SDS011;38063;53.210;6.504;2023-07-29T07:26:24;8.80;;;3.53;;
52057;SDS011;38063;53.210;6.504;2023-07-29T07:28:49;8.93;;;3.45;;
52057;SDS011;38063;53.210;6.504;2023-07-29T07:31:16;8.93;;;3.70;;
52057;SDS011;38063;53.210;6.504;2023-07-29T07:33:42;8.35;;;3.60;;
52057;SDS011;38063;53.210;6.504;2023-07-29T07:36:08;7.78;;;3.42;;
52057;SDS011;38063;53.210;6.504;2023-07-29T07:38:33;8.63;;;3.15;;
52057;SDS011;38063;53.210;6.504;2023-07-29T07:40:59;7.68;;;3.35;;
52057;SDS011;38063;53.210;6.504;2023-07-29T07:43:24;7.50;;;3.33;;
52057;SDS011;38063;53.210;6.504;2023-07-29T07:45:51;7.40;;;3.90;;
52057;SDS011;38063;53.210;6.504;2023-07-29T07:48:22;8.73;;;3.38;;
52057;SDS011;38063;53.210;6.504;2023-07-29T07:50:47;12.75;;;4.03;;
52057;SDS011;38063;53.210;6.504;2023-07-29T07:53:13;4.95;;;2.95;;
52057;SDS011;38063;53.210;6.504;2023-07-29T07:55:39;6.47;;;3.47;;
52057;SDS011;38063;53.210;6.504;2023-07-29T07:58:04;5.60;;;3.60;;
52057;SDS011;38063;53.210;6.504;2023-07-29T08:00:30;10.05;;;3.50;;
52057;SDS011;38063;53.210;6.504;2023-07-29T08:02:56;8.50;;;3.47;;
52057;SDS011;38063;53.210;6.504;2023-07-29T08:05:21;10.88;;;3.45;;
52057;SDS011;38063;53.210;6.504;2023-07-29T08:07:47;7.93;;;3.38;;
52057;SDS011;38063;53.210;6.504;2023-07-29T08:10:12;9.05;;;3.38;;
52057;SDS011;38063;53.210;6.504;2023-07-29T08:12:38;9.48;;;3.10;;
52057;SDS011;38063;53.210;6.504;2023-07-29T08:15:04;9.13;;;3.08;;
52057;SDS011;38063;53.210;6.504;2023-07-29T08:17:30;9.18;;;3.65;;
52057;SDS011;38063;53.210;6.504;2023-07-29T08:19:55;6.20;;;3.08;;
52057;SDS011;38063;53.210;6.504;2023-07-29T08:22:21;9.02;;;3.00;;
52057;SDS011;38063;53.210;6.504;2023-07-29T08:24:47;8.38;;;2.75;;
52057;SDS011;38063;53.210;6.504;2023-07-29T08:27:12;8.70;;;2.67;;
52057;SDS011;38063;53.210;6.504;2023-07-29T08:29:38;7.57;;;2.60;;
52057;SDS011;38063;53.210;6.504;2023-07-29T08:32:04;2.50;;;2.00;;
52057;SDS011;38063;53.210;6.504;2023-07-29T08:34:30;7.25;;;2.78;;
52057;SDS011;38063;53.210;6.504;2023-07-29T08:36:55;6.60;;;2.30;;
52057;SDS011;38063;53.210;6.504;2023-07-29T08:39:21;5.85;;;2.28;;
52057;SDS011;38063;53.210;6.504;2023-07-29T08:44:43;6.22;;;2.90;;
52057;SDS011;38063;53.210;6.504;2023-07-29T08:47:10;3.60;;;1.98;;
52057;SDS011;38063;53.210;6.504;2023-07-29T08:49:38;5.03;;;2.22;;
52057;SDS011;38063;53.210;6.504;2023-07-29T08:52:04;6.15;;;2.13;;
52057;SDS011;38063;53.210;6.504;2023-07-29T08:54:31;5.35;;;2.13;;
52057;SDS011;38063;53.210;6.504;2023-07-29T08:56:57;6.75;;;1.90;;
52057;SDS011;38063;53.210;6.504;2023-07-29T08:59:23;5.82;;;2.13;;
52057;SDS011;38063;53.210;6.504;2023-07-29T09:01:50;5.15;;;2.15;;
52057;SDS011;38063;53.210;6.504;2023-07-29T09:04:18;3.17;;;2.00;;
52057;SDS011;38063;53.210;6.504;2023-07-29T09:06:43;5.40;;;2.10;;
52057;SDS011;38063;53.210;6.504;2023-07-29T09:09:11;5.30;;;1.92;;
52057;SDS011;38063;53.210;6.504;2023-07-29T09:11:37;4.60;;;1.70;;
52057;SDS011;38063;53.210;6.504;2023-07-29T09:14:03;4.25;;;1.85;;
52057;SDS011;38063;53.210;6.504;2023-07-29T09:16:28;4.13;;;2.20;;
52057;SDS011;38063;53.210;6.504;2023-07-29T09:18:54;3.90;;;1.73;;
52057;SDS011;38063;53.210;6.504;2023-07-29T09:21:23;7.32;;;2.08;;
52057;SDS011;38063;53.210;6.504;2023-07-29T09:23:54;5.85;;;2.05;;
52057;SDS011;38063;53.210;6.504;2023-07-29T09:26:23;4.43;;;1.70;;
52057;SDS011;38063;53.210;6.504;2023-07-29T09:28:53;4.55;;;1.80;;
52057;SDS011;38063;53.210;6.504;2023-07-29T09:31:22;4.60;;;1.50;;
52057;SDS011;38063;53.210;6.504;2023-07-29T09:33:49;5.85;;;1.70;;
52057;SDS011;38063;53.210;6.504;2023-07-29T09:36:15;8.05;;;2.03;;
52057;SDS011;38063;53.210;6.504;2023-07-29T09:38:41;3.67;;;1.48;;
52057;SDS011;38063;53.210;6.504;2023-07-29T09:41:09;4.47;;;1.40;;
52057;SDS011;38063;53.210;6.504;2023-07-29T09:43:39;3.33;;;1.52;;
52057;SDS011;38063;53.210;6.504;2023-07-29T09:46:05;7.60;;;1.77;;
52057;SDS011;38063;53.210;6.504;2023-07-29T09:48:37;3.35;;;1.15;;
52057;SDS011;38063;53.210;6.504;2023-07-29T09:51:13;2.97;;;1.15;;
52057;SDS011;38063;53.210;6.504;2023-07-29T09:53:41;6.53;;;1.50;;
52057;SDS011;38063;53.210;6.504;2023-07-29T09:56:08;1.90;;;1.20;;
52057;SDS011;38063;53.210;6.504;2023-07-29T09:58:34;3.28;;;1.20;;
52057;SDS011;38063;53.210;6.504;2023-07-29T10:01:00;4.95;;;1.42;;
52057;SDS011;38063;53.210;6.504;2023-07-29T10:03:26;2.67;;;1.08;;
52057;SDS011;38063;53.210;6.504;2023-07-29T10:05:53;17.60;;;2.30;;
52057;SDS011;38063;53.210;6.504;2023-07-29T10:08:19;4.40;;;1.85;;
52057;SDS011;38063;53.210;6.504;2023-07-29T10:10:47;13.40;;;3.08;;
52057;SDS011;38063;53.210;6.504;2023-07-29T10:13:15;11.07;;;2.85;;
52057;SDS011;38063;53.210;6.504;2023-07-29T10:15:41;7.15;;;1.80;;
52057;SDS011;38063;53.210;6.504;2023-07-29T10:18:08;4.05;;;1.67;;
52057;SDS011;38063;53.210;6.504;2023-07-29T10:20:34;4.75;;;1.50;;
52057;SDS011;38063;53.210;6.504;2023-07-29T10:23:01;7.32;;;1.70;;
52057;SDS011;38063;53.210;6.504;2023-07-29T10:25:38;4.25;;;1.45;;
52057;SDS011;38063;53.210;6.504;2023-07-29T10:28:08;4.03;;;1.50;;
52057;SDS011;38063;53.210;6.504;2023-07-29T10:30:35;6.13;;;1.52;;
52057;SDS011;38063;53.210;6.504;2023-07-29T10:33:02;4.68;;;1.15;;
52057;SDS011;38063;53.210;6.504;2023-07-29T10:35:29;7.03;;;1.50;;
52057;SDS011;38063;53.210;6.504;2023-07-29T10:37:55;4.10;;;1.70;;
52057;SDS011;38063;53.210;6.504;2023-07-29T10:40:21;4.63;;;1.30;;
52057;SDS011;38063;53.210;6.504;2023-07-29T10:43:00;3.88;;;1.20;;
52057;SDS011;38063;53.210;6.504;2023-07-29T10:45:48;4.68;;;1.60;;
52057;SDS011;38063;53.210;6.504;2023-07-29T10:48:39;4.38;;;1.25;;
52057;SDS011;38063;53.210;6.504;2023-07-29T10:53:47;2.58;;;1.23;;
52057;SDS011;38063;53.210;6.504;2023-07-29T10:56:13;3.72;;;1.10;;
52057;SDS011;38063;53.210;6.504;2023-07-29T10:58:54;4.32;;;1.40;;
52057;SDS011;38063;53.210;6.504;2023-07-29T11:01:31;8.25;;;1.65;;
52057;SDS011;38063;53.210;6.504;2023-07-29T11:09:41;5.68;;;1.40;;
52057;SDS011;38063;53.210;6.504;2023-07-29T11:12:35;14.77;;;3.30;;
52057;SDS011;38063;53.210;6.504;2023-07-29T11:17:36;5.30;;;1.50;;
52057;SDS011;38063;53.210;6.504;2023-07-29T11:20:04;4.13;;;1.38;;
52057;SDS011;38063;53.210;6.504;2023-07-29T11:22:32;2.47;;;1.42;;
52057;SDS011;38063;53.210;6.504;2023-07-29T11:24:58;1.45;;;1.13;;
52057;SDS011;38063;53.210;6.504;2023-07-29T11:27:24;3.30;;;1.60;;
52057;SDS011;38063;53.210;6.504;2023-07-29T11:29:49;5.57;;;1.50;;
52057;SDS011;38063;53.210;6.504;2023-07-29T11:32:15;3.83;;;1.08;;
52057;SDS011;38063;53.210;6.504;2023-07-29T11:34:42;2.58;;;1.45;;
52057;SDS011;38063;53.210;6.504;2023-07-29T11:37:10;5.13;;;1.88;;
52057;SDS011;38063;53.210;6.504;2023-07-29T11:39:40;4.13;;;1.52;;
52057;SDS011;38063;53.210;6.504;2023-07-29T11:42:06;5.72;;;1.98;;
52057;SDS011;38063;53.210;6.504;2023-07-29T11:44:35;5.45;;;1.83;;
52057;SDS011;38063;53.210;6.504;2023-07-29T11:47:01;2.90;;;1.77;;
52057;SDS011;38063;53.210;6.504;2023-07-29T11:49:27;5.15;;;1.90;;
52057;SDS011;38063;53.210;6.504;2023-07-29T11:51:53;5.10;;;1.90;;
52057;SDS011;38063;53.210;6.504;2023-07-29T11:54:19;6.25;;;1.95;;
52057;SDS011;38063;53.210;6.504;2023-07-29T11:56:46;3.53;;;1.80;;
52057;SDS011;38063;53.210;6.504;2023-07-29T11:59:13;6.28;;;1.88;;
52057;SDS011;38063;53.210;6.504;2023-07-29T12:01:40;4.63;;;1.70;;
52057;SDS011;38063;53.210;6.504;2023-07-29T12:04:05;2.92;;;1.70;;
52057;SDS011;38063;53.210;6.504;2023-07-29T12:06:31;3.75;;;1.90;;
52057;SDS011;38063;53.210;6.504;2023-07-29T12:08:57;4.95;;;2.17;;
52057;SDS011;38063;53.210;6.504;2023-07-29T12:11:23;5.15;;;2.45;;
52057;SDS011;38063;53.210;6.504;2023-07-29T12:13:49;8.77;;;2.63;;
52057;SDS011;38063;53.210;6.504;2023-07-29T12:16:18;4.30;;;2.35;;
52057;SDS011;38063;53.210;6.504;2023-07-29T12:18:43;10.90;;;2.60;;
52057;SDS011;38063;53.210;6.504;2023-07-29T12:21:09;5.10;;;2.10;;
52057;SDS011;38063;53.210;6.504;2023-07-29T12:23:35;4.07;;;1.67;;
52057;SDS011;38063;53.210;6.504;2023-07-29T12:26:01;6.53;;;1.75;;
52057;SDS011;38063;53.210;6.504;2023-07-29T12:28:27;4.25;;;1.70;;
52057;SDS011;38063;53.210;6.504;2023-07-29T12:30:55;3.78;;;2.00;;
52057;SDS011;38063;53.210;6.504;2023-07-29T12:33:31;6.03;;;1.90;;
52057;SDS011;38063;53.210;6.504;2023-07-29T12:36:01;3.95;;;1.90;;
52057;SDS011;38063;53.210;6.504;2023-07-29T12:38:27;3.92;;;1.83;;
52057;SDS011;38063;53.210;6.504;2023-07-29T12:40:54;5.47;;;2.15;;
52057;SDS011;38063;53.210;6.504;2023-07-29T12:43:20;4.50;;;1.88;;
52057;SDS011;38063;53.210;6.504;2023-07-29T12:45:46;5.35;;;2.83;;
52057;SDS011;38063;53.210;6.504;2023-07-29T12:48:13;5.20;;;2.08;;
52057;SDS011;38063;53.210;6.504;2023-07-29T12:50:40;5.53;;;1.88;;
52057;SDS011;38063;53.210;6.504;2023-07-29T12:53:06;3.35;;;1.88;;
52057;SDS011;38063;53.210;6.504;2023-07-29T12:55:33;6.03;;;1.90;;
52057;SDS011;38063;53.210;6.504;2023-07-29T12:57:59;5.10;;;1.88;;
52057;SDS011;38063;53.210;6.504;2023-07-29T13:00:24;2.88;;;1.58;;
52057;SDS011;38063;53.210;6.504;2023-07-29T13:02:50;3.08;;;1.88;;
52057;SDS011;38063;53.210;6.504;2023-07-29T13:05:16;6.05;;;2.28;;
52057;SDS011;38063;53.210;6.504;2023-07-29T13:07:42;7.50;;;1.73;;
52057;SDS011;38063;53.210;6.504;2023-07-29T13:10:11;4.00;;;2.03;;
52057;SDS011;38063;53.210;6.504;2023-07-29T13:12:38;4.25;;;1.58;;
52057;SDS011;38063;53.210;6.504;2023-07-29T13:15:04;4.90;;;1.63;;
52057;SDS011;38063;53.210;6.504;2023-07-29T13:17:30;4.10;;;1.55;;
52057;SDS011;38063;53.210;6.504;2023-07-29T13:19:56;3.42;;;1.48;;
52057;SDS011;38063;53.210;6.504;2023-07-29T13:22:22;4.88;;;1.70;;
52057;SDS011;38063;53.210;6.504;2023-07-29T13:24:47;6.20;;;1.50;;
52057;SDS011;38063;53.210;6.504;2023-07-29T13:27:13;3.70;;;1.63;;
52057;SDS011;38063;53.210;6.504;2023-07-29T13:29:39;4.78;;;1.52;;
52057;SDS011;38063;53.210;6.504;2023-07-29T13:32:05;4.63;;;1.80;;
52057;SDS011;38063;53.210;6.504;2023-07-29T13:34:31;5.20;;;1.80;;
52057;SDS011;38063;53.210;6.504;2023-07-29T13:36:57;4.75;;;1.70;;
52057;SDS011;38063;53.210;6.504;2023-07-29T13:39:23;4.32;;;1.85;;
52057;SDS011;38063;53.210;6.504;2023-07-29T13:41:48;3.67;;;1.75;;
52057;SDS011;38063;53.210;6.504;2023-07-29T13:44:14;4.25;;;2.00;;
52057;SDS011;38063;53.210;6.504;2023-07-29T13:46:40;4.30;;;1.70;;
52057;SDS011;38063;53.210;6.504;2023-07-29T13:49:05;2.90;;;1.50;;
52057;SDS011;38063;53.210;6.504;2023-07-29T13:51:31;3.88;;;1.45;;
52057;SDS011;38063;53.210;6.504;2023-07-29T13:53:56;4.45;;;1.73;;
52057;SDS011;38063;53.210;6.504;2023-07-29T13:56:22;6.05;;;2.00;;
52057;SDS011;38063;53.210;6.504;2023-07-29T13:58:48;4.13;;;1.70;;
52057;SDS011;38063;53.210;6.504;2023-07-29T14:01:14;4.07;;;1.50;;
52057;SDS011;38063;53.210;6.504;2023-07-29T14:03:39;5.45;;;1.73;;
52057;SDS011;38063;53.210;6.504;2023-07-29T14:06:05;4.85;;;2.17;;
52057;SDS011;38063;53.210;6.504;2023-07-29T14:08:31;4.18;;;1.48;;
52057;SDS011;38063;53.210;6.504;2023-07-29T14:10:56;5.28;;;1.73;;
52057;SDS011;38063;53.210;6.504;2023-07-29T14:13:22;7.20;;;1.90;;
52057;SDS011;38063;53.210;6.504;2023-07-29T14:15:47;6.80;;;2.13;;
52057;SDS011;38063;53.210;6.504;2023-07-29T14:18:13;5.28;;;2.10;;
52057;SDS011;38063;53.210;6.504;2023-07-29T14:20:39;3.13;;;1.65;;
52057;SDS011;38063;53.210;6.504;2023-07-29T14:23:04;4.65;;;1.60;;
52057;SDS011;38063;53.210;6.504;2023-07-29T14:25:30;5.70;;;2.22;;
52057;SDS011;38063;53.210;6.504;2023-07-29T14:27:56;4.28;;;1.98;;
52057;SDS011;38063;53.210;6.504;2023-07-29T14:30:22;8.00;;;1.73;;
52057;SDS011;38063;53.210;6.504;2023-07-29T14:32:48;6.30;;;1.80;;
52057;SDS011;38063;53.210;6.504;2023-07-29T14:35:13;6.70;;;1.90;;
52057;SDS011;38063;53.210;6.504;2023-07-29T14:37:39;4.65;;;2.00;;
52057;SDS011;38063;53.210;6.504;2023-07-29T14:40:05;6.22;;;1.92;;
52057;SDS011;38063;53.210;6.504;2023-07-29T14:42:31;4.55;;;2.03;;
52057;SDS011;38063;53.210;6.504;2023-07-29T14:44:57;6.03;;;2.20;;
52057;SDS011;38063;53.210;6.504;2023-07-29T14:47:22;6.05;;;1.83;;
52057;SDS011;38063;53.210;6.504;2023-07-29T14:49:48;7.63;;;2.00;;
52057;SDS011;38063;53.210;6.504;2023-07-29T14:52:14;7.63;;;1.73;;
52057;SDS011;38063;53.210;6.504;2023-07-29T14:54:40;3.70;;;1.50;;
52057;SDS011;38063;53.210;6.504;2023-07-29T14:57:06;6.15;;;1.65;;
52057;SDS011;38063;53.210;6.504;2023-07-29T14:59:32;4.35;;;1.55;;
52057;SDS011;38063;53.210;6.504;2023-07-29T15:01:58;7.10;;;1.70;;